Time;durP1;ratioP1;P1;durP2;ratioP2;P2;SDS_P1;SDS_P2;PMS_P1;PMS_P2;Temp;Humidity;BMP_temperature;BMP_pressure;BME280_temperature;BME280_humidity;BME280_pressure;Samples;Min_cycle;Max_cycle;Signal;HPM_P1;HPM_P2
2021/05/15 00:00:28;;;;;;;3.27;2.08;;;;;;;37.65;32.71;161110.25;1632568;86;21896;-88
2021/05/15 00:03:00;;;;;;;4.28;2.52;;;;;;;37.60;32.76;161096.89;1633147;86;21241;-88
2021/05/15 00:05:31;;;;;;;3.67;2.17;;;;;;;37.59;32.83;161094.20;1633897;87;21805;-88
2021/05/15 00:08:03;;;;;;;3.98;2.30;;;;;;;37.56;32.91;161086.16;1619672;88;21761;-88
2021/05/15 00:10:34;;;;;;;4.00;2.35;;;;;;;37.54;33.00;161080.80;1620683;88;21314;-88
2021/05/15 00:13:05;;;;;;;4.95;2.05;;;;;;;37.53;33.02;161079.48;1621265;86;21668;-88
2021/05/15 00:15:37;;;;;;;4.33;2.20;;;;;;;37.57;33.06;161088.84;1646472;86;21250;-87
2021/05/15 00:18:08;;;;;;;4.08;2.35;;;;;;;37.51;33.18;161072.75;1647700;87;21397;-87
2021/05/15 00:20:40;;;;;;;3.90;2.98;;;;;;;37.53;33.15;161079.48;1622771;87;21238;-88
2021/05/15 00:23:11;;;;;;;4.40;2.52;;;;;;;37.59;33.20;161094.20;1621958;87;21203;-88
2021/05/15 00:25:44;;;;;;;3.22;2.35;;;;;;;37.62;33.20;161102.20;1625242;87;21310;-87
2021/05/15 00:28:15;;;;;;;3.45;2.02;;;;;;;37.61;33.22;161100.89;1633247;87;22343;-88
2021/05/15 00:30:46;;;;;;;2.50;1.82;;;;;;;37.59;33.26;161094.20;1591382;88;21238;-88
2021/05/15 00:33:17;;;;;;;3.75;1.82;;;;;;;37.60;33.27;161096.89;1619844;88;21762;-87
2021/05/15 00:35:48;;;;;;;3.02;1.90;;;;;;;37.58;33.35;161091.53;1619992;87;21415;-87
2021/05/15 00:38:19;;;;;;;3.52;2.17;;;;;;;37.58;33.33;161091.53;1622041;87;21318;-87
2021/05/15 00:40:50;;;;;;;3.52;2.00;;;;;;;37.56;33.40;161086.16;1619794;88;21727;-88
2021/05/15 00:43:22;;;;;;;5.28;2.20;;;;;;;37.57;33.44;161090.16;1619927;88;21211;-87
2021/05/15 00:45:53;;;;;;;3.70;2.10;;;;;;;37.57;33.44;161090.16;1619911;88;21192;-87
2021/05/15 00:48:24;;;;;;;3.90;2.58;;;;;;;37.58;33.50;161091.53;1638219;86;21216;-88
2021/05/15 00:50:56;;;;;;;2.90;2.00;;;;;;;37.61;33.47;161099.58;1638479;87;21210;-87
2021/05/15 00:53:27;;;;;;;3.15;1.92;;;;;;;37.64;33.49;161107.58;1632556;87;21340;-87
2021/05/15 00:55:58;;;;;;;2.92;2.02;;;;;;;37.58;33.56;161092.84;1633041;88;21385;-87
2021/05/15 00:58:29;;;;;;;3.55;2.00;;;;;;;37.61;33.55;161100.89;1654438;86;21193;-85
2021/05/15 01:01:00;;;;;;;3.55;2.33;;;;;;;37.58;33.64;161091.53;1633481;86;21259;-87
2021/05/15 01:03:31;;;;;;;2.67;2.10;;;;;;;37.60;33.60;161096.89;1642241;86;21228;-86
2021/05/15 01:06:05;;;;;;;3.67;2.20;;;;;;;37.52;33.69;161076.80;1640332;87;21436;-87
2021/05/15 01:08:36;;;;;;;3.22;2.20;;;;;;;37.56;33.70;161086.16;1652190;86;21196;-87
2021/05/15 01:11:07;;;;;;;2.83;1.92;;;;;;;37.55;33.72;161084.84;1633282;88;21844;-87
2021/05/15 01:13:38;;;;;;;3.02;2.45;;;;;;;37.56;33.73;161086.16;1648534;87;21220;-87
2021/05/15 01:16:09;;;;;;;2.90;2.27;;;;;;;37.51;33.77;161074.11;1645398;87;21853;-87
2021/05/15 01:19:47;;;;;;;4.75;2.33;;;;;;;37.53;33.76;161079.48;1658901;86;21233;-87
2021/05/15 01:22:20;;;;;;;3.87;2.52;;;;;;;37.50;33.78;161070.13;1639085;87;21343;-87
2021/05/15 01:24:51;;;;;;;5.90;2.35;;;;;;;37.47;33.86;161062.06;1636878;87;21539;-86
2021/05/15 01:27:24;;;;;;;4.03;2.55;;;;;;;37.46;33.87;161059.38;1631809;86;21423;-86
2021/05/15 01:29:55;;;;;;;3.08;2.05;;;;;;;37.45;33.90;161058.02;1638049;87;21905;-87
2021/05/15 01:32:26;;;;;;;3.25;2.05;;;;;;;37.48;33.92;161064.75;1640222;87;21237;-87
2021/05/15 01:34:58;;;;;;;3.75;2.10;;;;;;;37.45;33.97;161058.02;1648651;86;21397;-87
2021/05/15 01:37:29;;;;;;;3.87;2.17;;;;;;;37.49;33.95;161067.44;1647720;87;21204;-87
2021/05/15 01:40:01;;;;;;;4.12;2.33;;;;;;;37.51;33.93;161074.11;1647040;87;21241;-87
2021/05/15 01:42:33;;;;;;;4.28;2.05;;;;;;;37.50;34.00;161070.13;1647618;87;21676;-87
2021/05/15 01:45:08;;;;;;;2.50;2.27;;;;;;;37.50;34.03;161070.13;1645460;86;21267;-87
2021/05/15 01:47:39;;;;;;;3.20;2.25;;;;;;;37.54;33.98;161082.16;1643482;87;21326;-87
2021/05/15 01:50:17;;;;;;;3.40;2.08;;;;;;;37.54;34.06;161080.80;1622919;87;21244;-86
2021/05/15 01:52:44;;;;;;;3.75;2.27;;;;;;;37.52;34.07;161075.42;1645419;86;21239;-87
2021/05/15 01:55:22;;;;;;;3.40;2.55;;;;;;;37.53;34.12;161078.11;1657823;85;21195;-86
2021/05/15 01:57:54;;;;;;;4.37;2.08;;;;;;;37.53;34.10;161078.11;1637645;85;21197;-86
2021/05/15 02:00:26;;;;;;;3.70;2.80;;;;;;;37.50;34.11;161070.13;1645845;86;21242;-86
2021/05/15 02:02:57;;;;;;;3.40;2.27;;;;;;;37.47;34.14;161062.06;1627463;87;21204;-86
2021/05/15 02:05:28;;;;;;;4.58;2.42;;;;;;;37.50;34.12;161071.44;1649353;86;21177;-86
2021/05/15 02:08:00;;;;;;;3.83;2.70;;;;;;;37.50;34.12;161070.13;1645850;86;21230;-86
2021/05/15 02:10:31;;;;;;;3.90;2.25;;;;;;;37.52;34.15;161076.80;1647021;87;21274;-86
2021/05/15 02:13:03;;;;;;;6.05;2.50;;;;;;;37.58;34.11;161091.53;1643565;86;21265;-87
2021/05/15 02:15:35;;;;;;;3.80;2.37;;;;;;;37.54;34.13;161082.16;1634273;87;21328;-87
2021/05/15 02:18:08;;;;;;;3.10;2.30;;;;;;;37.53;34.15;161078.11;1646478;86;21183;-87
2021/05/15 02:20:40;;;;;;;4.12;2.70;;;;;;;37.51;34.12;161072.75;1643501;87;21402;-87
2021/05/15 02:23:11;;;;;;;2.70;2.10;;;;;;;37.53;34.14;161078.11;1644047;86;21394;-86
2021/05/15 02:25:43;;;;;;;2.95;2.40;;;;;;;37.53;34.08;161078.11;1649851;86;21229;-86
2021/05/15 02:28:15;;;;;;;3.25;2.95;;;;;;;37.49;34.04;161068.75;1644840;87;21377;-88
2021/05/15 02:30:46;;;;;;;3.10;2.35;;;;;;;37.49;34.01;161067.44;1644643;87;21748;-87
2021/05/15 02:33:17;;;;;;;4.60;2.33;;;;;;;37.44;34.02;161054.02;1644631;86;21260;-88
2021/05/15 02:35:49;;;;;;;4.03;3.62;;;;;;;37.39;34.01;161041.97;1647690;86;21394;-88
2021/05/15 02:38:21;;;;;;;5.33;3.10;;;;;;;37.43;33.99;161051.34;1646101;87;21192;-87
2021/05/15 02:40:57;;;;;;;6.10;3.52;;;;;;;37.42;33.95;161050.03;1647315;87;21227;-87
2021/05/15 02:43:24;;;;;;;7.15;4.30;;;;;;;37.36;33.95;161032.61;1644989;87;21382;-87
2021/05/15 02:45:56;;;;;;;6.47;4.20;;;;;;;37.31;34.00;161019.16;1643916;87;21594;-87
2021/05/15 02:48:27;;;;;;;5.72;4.58;;;;;;;37.25;34.14;161003.09;1647435;85;21295;-87
2021/05/15 02:50:58;;;;;;;12.43;7.22;;;;;;;37.23;34.21;160999.06;1648528;86;21728;-87
2021/05/15 02:53:29;;;;;;;28.83;16.93;;;;;;;37.22;34.23;160995.06;1648882;85;21217;-87
2021/05/15 02:56:01;;;;;;;40.88;20.88;;;;;;;37.14;34.34;160974.97;1645496;86;21260;-84
2021/05/15 02:58:32;;;;;;;41.73;21.87;;;;;;;37.10;34.47;160964.23;1634113;86;21420;-84
2021/05/15 03:01:03;;;;;;;28.10;15.90;;;;;;;37.10;34.50;160962.92;1644587;87;21292;-84
2021/05/15 03:03:34;;;;;;;32.00;15.80;;;;;;;37.08;34.62;160958.92;1649276;86;21248;-83
2021/05/15 03:06:05;;;;;;;14.38;9.90;;;;;;;37.06;34.68;160953.56;1647681;87;21284;-86
2021/05/15 03:08:38;;;;;;;11.93;6.50;;;;;;;37.08;34.72;160957.56;1647498;86;21249;-87
2021/05/15 03:11:09;;;;;;;13.58;5.12;;;;;;;37.12;34.74;160969.59;1648765;87;21201;-86
2021/05/15 03:13:40;;;;;;;18.30;10.20;;;;;;;37.09;34.84;160960.23;1639997;86;21381;-87
2021/05/15 03:16:11;;;;;;;15.45;9.45;;;;;;;37.06;34.87;160953.56;1646824;86;21264;-88
2021/05/15 03:18:42;;;;;;;9.25;6.58;;;;;;;37.07;34.91;160954.87;1648701;86;21209;-88
2021/05/15 03:21:14;;;;;;;6.50;4.28;;;;;;;37.14;34.88;160973.66;1641729;87;21255;-88
2021/05/15 03:23:45;;;;;;;5.55;3.45;;;;;;;37.19;34.98;160988.37;1649180;86;21218;-88
2021/05/15 03:26:16;;;;;;;6.85;3.87;;;;;;;37.16;34.94;160978.97;1640175;86;21281;-88
2021/05/15 03:28:48;;;;;;;5.85;3.40;;;;;;;37.14;34.99;160974.97;1634978;87;21642;-88
2021/05/15 03:31:19;;;;;;;6.10;3.47;;;;;;;36.60;35.61;160827.67;1648642;87;21185;-88
2021/05/15 03:33:50;;;;;;;6.83;3.30;;;;;;;36.35;36.01;160760.70;1652340;85;21258;-87
2021/05/15 03:36:22;;;;;;;6.20;3.50;;;;;;;36.30;36.13;160748.67;1636497;86;21254;-87
2021/05/15 03:38:54;;;;;;;4.03;3.12;;;;;;;36.27;36.20;160740.63;1657177;86;21229;-88
2021/05/15 03:41:25;;;;;;;5.97;3.87;;;;;;;36.26;36.26;160736.62;1644736;86;21213;-87
2021/05/15 03:43:57;;;;;;;3.75;3.08;;;;;;;36.42;36.18;160780.78;1642696;86;21221;-87
2021/05/15 03:46:28;;;;;;;5.47;3.40;;;;;;;36.49;36.14;160799.55;1654561;86;21210;-87
2021/05/15 03:48:59;;;;;;;5.75;3.25;;;;;;;36.52;36.11;160807.59;1628958;88;21349;-86
2021/05/15 03:51:30;;;;;;;4.72;3.20;;;;;;;36.54;36.08;160812.95;1628875;86;21363;-87
2021/05/15 03:54:03;;;;;;;4.83;3.20;;;;;;;36.65;36.09;160841.03;1624149;87;21249;-87
2021/05/15 03:56:34;;;;;;;4.05;3.10;;;;;;;36.69;35.99;160853.08;1593764;90;21748;-87
2021/05/15 03:59:06;;;;;;;4.35;3.08;;;;;;;36.67;35.99;160847.75;1601453;88;21773;-87
2021/05/15 04:01:38;;;;;;;4.15;2.95;;;;;;;36.68;35.98;160850.44;1626955;88;21236;-87
2021/05/15 04:04:09;;;;;;;4.30;2.72;;;;;;;36.72;35.93;160861.12;1592020;89;21285;-87
2021/05/15 04:06:41;;;;;;;5.60;2.90;;;;;;;36.76;35.90;160871.84;1599625;89;21183;-88
2021/05/15 04:09:14;;;;;;;4.08;3.05;;;;;;;36.81;35.87;160885.20;1607581;89;21280;-87
2021/05/15 04:11:45;;;;;;;4.22;2.58;;;;;;;36.87;35.87;160901.28;1605888;89;21303;-87
2021/05/15 04:17:16;;;;;;;;;;;;;;;36.94;35.89;160920.06;1623648;88;21839;-87
2021/05/15 04:19:35;;;;;;;4.45;2.17;;;;;;;36.96;35.87;160924.11;1621916;88;20347;-87
2021/05/15 04:22:06;;;;;;;3.95;2.35;;;;;;;36.98;35.95;160930.78;1605524;88;21214;-86
2021/05/15 04:24:37;;;;;;;4.30;2.58;;;;;;;37.02;35.92;160941.52;1590783;88;21262;-86
2021/05/15 04:27:08;;;;;;;2.52;2.20;;;;;;;37.04;35.99;160946.83;1612433;88;21215;-87
2021/05/15 04:29:40;;;;;;;4.05;2.20;;;;;;;37.03;35.98;160945.52;1604088;87;21769;-87
2021/05/15 04:32:11;;;;;;;3.27;1.72;;;;;;;37.04;36.13;160948.19;1616679;88;21207;-86
2021/05/15 04:34:43;;;;;;;2.50;1.87;;;;;;;37.09;36.17;160960.23;1604945;89;21742;-86
2021/05/15 04:37:14;;;;;;;1.87;1.67;;;;;;;37.16;36.08;160978.97;1607894;88;21836;-86
2021/05/15 04:39:46;;;;;;;2.10;1.70;;;;;;;37.15;36.01;160976.33;1621344;88;21891;-86
2021/05/15 04:42:17;;;;;;;2.85;1.67;;;;;;;37.15;36.02;160976.33;1608350;88;21206;-86
2021/05/15 04:44:48;;;;;;;2.67;1.98;;;;;;;37.17;35.95;160983.00;1606440;88;21782;-87
2021/05/15 04:47:19;;;;;;;3.25;1.90;;;;;;;37.19;35.96;160988.37;1617904;87;21198;-87
2021/05/15 04:49:50;;;;;;;2.95;1.77;;;;;;;37.22;35.94;160996.38;1614442;88;21166;-87
2021/05/15 04:52:21;;;;;;;2.25;1.90;;;;;;;37.29;35.96;161015.14;1604896;88;21279;-85
2021/05/15 04:54:52;;;;;;;3.20;2.00;;;;;;;37.33;35.96;161024.50;1604833;89;21777;-86
2021/05/15 04:57:24;;;;;;;2.35;2.00;;;;;;;37.36;35.90;161033.92;1608012;87;21263;-86
2021/05/15 04:59:56;;;;;;;4.28;2.35;;;;;;;37.34;35.93;161028.56;1593279;89;21694;-86
2021/05/15 05:02:27;;;;;;;3.33;2.00;;;;;;;37.40;35.84;161043.28;1607055;89;21227;-85
2021/05/15 05:04:58;;;;;;;3.80;2.00;;;;;;;37.35;35.80;161031.25;1604257;89;21211;-85
2021/05/15 05:07:30;;;;;;;3.72;1.90;;;;;;;37.43;35.79;161052.70;1613014;87;21330;-86
2021/05/15 05:10:04;;;;;;;2.00;1.67;;;;;;;37.47;35.78;161062.06;1621390;88;21624;-85
2021/05/15 05:12:35;;;;;;;3.27;2.20;;;;;;;37.49;35.66;161067.44;1606292;88;21688;-85
2021/05/15 05:15:08;;;;;;;3.25;1.90;;;;;;;37.48;35.67;161066.06;1607400;88;21219;-85
2021/05/15 05:17:39;;;;;;;2.50;1.70;;;;;;;37.49;35.71;161068.75;1614332;88;21238;-86
2021/05/15 05:20:11;;;;;;;2.65;1.80;;;;;;;37.52;35.68;161076.80;1608356;88;21191;-82
2021/05/15 05:22:42;;;;;;;3.08;2.05;;;;;;;37.55;35.66;161084.84;1604840;89;21778;-84
2021/05/15 05:25:16;;;;;;;5.28;1.80;;;;;;;37.60;35.55;161098.20;1604958;89;21210;-85
2021/05/15 05:27:49;;;;;;;2.55;1.82;;;;;;;37.66;35.54;161112.94;1612676;88;21713;-85
2021/05/15 05:30:21;;;;;;;3.75;1.85;;;;;;;37.69;35.48;161122.31;1613726;88;21770;-84
2021/05/15 05:32:52;;;;;;;3.25;1.82;;;;;;;37.73;35.49;161133.03;1595148;89;21765;-86
2021/05/15 05:35:24;;;;;;;2.50;1.72;;;;;;;37.74;35.51;161135.72;1605496;88;22525;-81
2021/05/15 05:37:55;;;;;;;1.65;1.55;;;;;;;37.74;35.57;161134.34;1596601;89;21236;-80
2021/05/15 05:40:27;;;;;;;1.90;1.37;;;;;;;37.79;35.47;161147.81;1607944;89;21315;-81
2021/05/15 05:42:59;;;;;;;3.05;1.80;;;;;;;37.77;35.56;161142.41;1581060;91;21229;-80
2021/05/15 05:45:30;;;;;;;2.10;1.90;;;;;;;37.83;35.47;161159.88;1588206;89;21316;-81
2021/05/15 05:48:02;;;;;;;3.25;2.47;;;;;;;37.86;35.37;161167.92;1604862;89;21644;-81
2021/05/15 05:50:33;;;;;;;3.27;1.85;;;;;;;37.89;35.40;161174.59;1604854;88;21234;-81
2021/05/15 05:53:04;;;;;;;2.25;1.80;;;;;;;37.93;35.31;161185.34;1604855;89;21210;-81
2021/05/15 05:55:35;;;;;;;1.82;1.60;;;;;;;37.94;35.29;161189.34;1606823;88;21248;-81
2021/05/15 05:58:06;;;;;;;2.33;1.55;;;;;;;37.97;35.29;161196.02;1606009;89;21232;-80
2021/05/15 06:00:37;;;;;;;1.95;1.35;;;;;;;38.02;35.37;161212.13;1600275;89;21230;-81
2021/05/15 06:03:08;;;;;;;2.80;1.40;;;;;;;37.98;35.38;161200.06;1605062;88;21376;-80
2021/05/15 06:05:39;;;;;;;2.60;1.50;;;;;;;37.97;35.37;161197.39;1614034;87;21243;-80
2021/05/15 06:08:12;;;;;;;1.70;1.60;;;;;;;37.97;35.39;161197.39;1614271;88;21235;-80
2021/05/15 06:10:46;;;;;;;2.50;1.40;;;;;;;38.00;35.46;161205.44;1604926;88;21211;-80
2021/05/15 06:13:19;;;;;;;1.95;1.47;;;;;;;37.98;35.52;161198.70;1606720;89;21229;-81
2021/05/15 06:15:51;;;;;;;1.50;1.35;;;;;;;38.00;35.38;161205.44;1570829;89;21210;-80
2021/05/15 06:18:23;;;;;;;4.05;1.32;;;;;;;38.00;35.35;161206.75;1587672;89;21721;-80
2021/05/15 06:20:54;;;;;;;1.77;1.52;;;;;;;38.01;35.40;161208.13;1619303;88;21314;-80
2021/05/15 06:23:26;;;;;;;1.70;1.32;;;;;;;37.90;35.51;161177.28;1609940;87;21193;-80
2021/05/15 06:25:57;;;;;;;2.08;1.30;;;;;;;37.84;35.62;161161.23;1645847;87;21238;-80
2021/05/15 06:28:28;;;;;;;1.60;1.30;;;;;;;37.90;35.67;161177.28;1640560;87;21784;-81
2021/05/15 06:30:59;;;;;;;2.92;1.50;;;;;;;37.92;35.66;161183.97;1635294;86;21698;-82
2021/05/15 06:33:30;;;;;;;1.80;1.40;;;;;;;38.01;35.58;161208.13;1645853;86;21836;-83
2021/05/15 06:36:01;;;;;;;2.17;1.52;;;;;;;38.07;35.57;161225.53;1640506;86;21205;-83
2021/05/15 06:38:32;;;;;;;1.42;1.32;;;;;;;38.05;35.69;161220.17;1622197;87;21304;-83
2021/05/15 06:41:04;;;;;;;2.40;1.80;;;;;;;38.06;35.70;161222.86;1639154;87;21238;-83
2021/05/15 06:43:35;;;;;;;2.52;1.70;;;;;;;38.06;35.66;161222.86;1620079;88;21239;-83
2021/05/15 06:46:07;;;;;;;1.95;1.40;;;;;;;38.11;35.62;161234.91;1620380;88;21766;-83
2021/05/15 06:48:38;;;;;;;5.17;1.52;;;;;;;38.16;35.58;161248.28;1626512;86;21318;-83
2021/05/15 06:51:11;;;;;;;1.57;1.47;;;;;;;38.22;35.70;161265.75;1620284;87;21777;-82
2021/05/15 06:53:43;;;;;;;1.55;1.45;;;;;;;38.23;35.76;161268.44;1628978;86;21252;-82
2021/05/15 06:56:14;;;;;;;2.35;1.40;;;;;;;38.30;35.80;161287.22;1644052;86;21962;-84
2021/05/15 06:58:47;;;;;;;2.27;1.60;;;;;;;38.34;35.82;161296.59;1643270;86;21236;-82
2021/05/15 07:01:25;;;;;;;4.58;1.67;;;;;;;38.44;35.76;161324.70;1645052;86;21272;-82
2021/05/15 07:04:13;;;;;;;2.10;1.45;;;;;;;38.44;35.76;161324.70;1640851;86;21417;-85
2021/05/15 07:06:45;;;;;;;2.52;1.42;;;;;;;38.53;35.74;161348.86;1646514;86;21307;-86
2021/05/15 07:09:16;;;;;;;2.10;1.85;;;;;;;38.55;35.76;161352.86;1644362;86;21263;-83
2021/05/15 07:11:53;;;;;;;2.25;1.27;;;;;;;38.65;35.72;161381.08;1644299;86;21315;-81
2021/05/15 07:14:20;;;;;;;1.85;1.47;;;;;;;38.74;35.71;161403.81;1644825;86;21395;-84
2021/05/15 07:16:53;;;;;;;2.00;1.45;;;;;;;38.84;35.72;161432.00;1643217;86;21366;-83
2021/05/15 07:19:24;;;;;;;4.00;1.40;;;;;;;38.95;35.72;161460.16;1592946;88;21200;-83
2021/05/15 07:21:55;;;;;;;2.02;1.22;;;;;;;39.05;35.82;161489.64;1605710;88;21443;-83
2021/05/15 07:24:26;;;;;;;1.30;1.20;;;;;;;39.14;35.88;161513.81;1608040;88;21337;-83
2021/05/15 07:26:58;;;;;;;2.40;1.60;;;;;;;39.31;35.84;161559.38;1608373;87;21335;-83
2021/05/15 07:29:32;;;;;;;1.40;1.17;;;;;;;39.47;35.72;161602.30;1596446;88;22003;-82
2021/05/15 07:32:07;;;;;;;1.25;1.15;;;;;;;39.61;35.39;161638.53;1600493;87;21558;-86
2021/05/15 07:34:40;;;;;;;1.65;1.12;;;;;;;39.70;34.97;161662.72;1600244;88;21314;-85
2021/05/15 07:37:14;;;;;;;1.15;0.93;;;;;;;39.81;34.43;161692.22;1596263;88;21540;-85
2021/05/15 07:39:53;;;;;;;1.57;1.47;;;;;;;39.90;34.02;161716.34;1596939;88;21785;-83
2021/05/15 07:42:28;;;;;;;2.15;0.90;;;;;;;40.08;33.75;161766.03;1600097;88;21210;-84
2021/05/15 07:45:01;;;;;;;8.43;5.28;;;;;;;40.24;33.77;161808.94;1598096;87;21440;-84
2021/05/15 07:47:37;;;;;;;6.90;4.72;;;;;;;40.37;33.67;161843.88;1598127;88;21785;-86
2021/05/15 07:50:12;;;;;;;5.00;3.15;;;;;;;40.54;33.42;161890.83;1594894;88;21301;-82
2021/05/15 07:52:46;;;;;;;4.78;2.47;;;;;;;40.71;32.96;161935.11;1607188;88;23435;-84
2021/05/15 07:55:21;;;;;;;3.58;2.52;;;;;;;40.78;32.88;161953.98;1609250;86;21245;-82
2021/05/15 07:57:55;;;;;;;2.90;2.22;;;;;;;40.90;32.85;161986.19;1608649;87;21355;-82
2021/05/15 08:00:30;;;;;;;5.05;3.20;;;;;;;41.00;32.60;162014.34;1608943;88;21254;-82
2021/05/15 08:03:04;;;;;;;2.30;2.10;;;;;;;41.08;32.51;162035.86;1606810;88;21275;-81
2021/05/15 08:05:37;;;;;;;1.70;1.60;;;;;;;41.14;32.39;162053.31;1613546;88;21185;-82
2021/05/15 08:08:08;;;;;;;4.85;2.85;;;;;;;41.19;32.44;162066.75;1623609;87;21216;-83
2021/05/15 08:10:40;;;;;;;8.63;4.90;;;;;;;40.95;32.70;162002.27;1622880;87;21217;-82
2021/05/15 08:13:12;;;;;;;7.37;4.53;;;;;;;41.00;32.67;162014.34;1623567;87;21219;-85
2021/05/15 08:15:44;;;;;;;5.03;3.08;;;;;;;40.94;32.70;161999.58;1624116;87;21386;-84
2021/05/15 08:18:15;;;;;;;4.30;2.47;;;;;;;41.31;32.31;162097.66;1624189;87;21295;-84
2021/05/15 08:20:47;;;;;;;3.40;2.10;;;;;;;41.35;32.32;162108.36;1624133;87;21430;-82
2021/05/15 08:23:18;;;;;;;1.35;1.25;;;;;;;41.36;32.42;162111.05;1624287;88;21791;-85
2021/05/15 08:25:50;;;;;;;1.77;1.17;;;;;;;41.43;32.44;162129.88;1624133;87;21315;-86
2021/05/15 08:28:24;;;;;;;1.47;1.10;;;;;;;41.51;32.38;162151.34;1624350;87;21689;-85
2021/05/15 08:30:55;;;;;;;1.52;1.27;;;;;;;41.52;32.22;162154.03;1616966;87;21232;-86
2021/05/15 08:33:26;;;;;;;2.02;1.30;;;;;;;41.58;32.05;162170.17;1623392;87;21205;-86
2021/05/15 08:35:57;;;;;;;1.32;1.10;;;;;;;41.62;31.96;162180.92;1623152;87;21148;-84
2021/05/15 08:38:28;;;;;;;1.00;0.90;;;;;;;41.64;31.93;162187.63;1608777;89;21461;-84
2021/05/15 08:41:00;;;;;;;1.15;0.88;;;;;;;41.63;31.81;162183.63;1632952;86;21422;-84
2021/05/15 08:43:34;;;;;;;1.15;0.88;;;;;;;41.75;31.55;162217.16;1607682;89;21244;-84
2021/05/15 08:46:05;;;;;;;3.02;0.93;;;;;;;41.83;31.53;162237.31;1631401;87;21208;-83
2021/05/15 08:48:36;;;;;;;0.80;0.80;;;;;;;41.92;31.21;162264.16;1628421;86;21230;-84
2021/05/15 08:51:07;;;;;;;1.00;0.80;;;;;;;41.95;31.08;162270.97;1596394;89;21358;-83
2021/05/15 08:53:39;;;;;;;1.77;0.90;;;;;;;41.71;31.17;162206.45;1632981;87;21192;-81
2021/05/15 08:56:11;;;;;;;1.27;1.17;;;;;;;41.69;30.96;162201.08;1601857;89;21249;-80
2021/05/15 08:58:42;;;;;;;2.15;1.20;;;;;;;41.68;31.03;162197.02;1649166;87;21840;-82
2021/05/15 09:01:15;;;;;;;1.30;1.20;;;;;;;41.63;31.00;162183.63;1645162;86;21240;-80
2021/05/15 09:03:46;;;;;;;1.00;0.88;;;;;;;41.64;30.97;162186.31;1636228;88;21731;-80
2021/05/15 09:06:20;;;;;;;1.57;1.30;;;;;;;41.66;30.85;162193.00;1636174;88;21220;-80
2021/05/15 09:08:53;;;;;;;3.77;1.35;;;;;;;41.62;30.86;162180.92;1628298;87;21769;-79
2021/05/15 09:11:25;;;;;;;3.12;1.45;;;;;;;41.58;30.94;162171.53;1649832;87;21262;-79
2021/05/15 09:13:59;;;;;;;2.77;1.72;;;;;;;41.63;30.98;162183.63;1649884;87;21286;-79
2021/05/15 09:16:31;;;;;;;1.77;1.50;;;;;;;41.63;31.12;162184.94;1649754;85;21376;-81
2021/05/15 09:19:08;;;;;;;1.40;1.10;;;;;;;41.71;31.17;162206.45;1649639;87;21871;-79
2021/05/15 09:21:41;;;;;;;3.08;1.75;;;;;;;41.79;30.96;162226.55;1649840;87;21250;-82
2021/05/15 09:24:14;;;;;;;2.70;1.27;;;;;;;41.93;30.59;162265.53;1649861;85;21381;-82
2021/05/15 09:26:51;;;;;;;3.58;1.62;;;;;;;41.94;30.44;162269.55;1649713;87;22583;-82
2021/05/15 09:29:23;;;;;;;2.35;1.40;;;;;;;41.93;30.28;162265.53;1597184;90;21300;-82
2021/05/15 09:31:56;;;;;;;3.12;1.70;;;;;;;41.92;30.28;162264.16;1639486;85;21261;-81
2021/05/15 09:34:28;;;;;;;1.82;1.10;;;;;;;42.00;30.22;162284.38;1626839;87;21333;-81
2021/05/15 09:37:00;;;;;;;1.87;1.00;;;;;;;42.00;30.23;162284.38;1645095;87;21250;-81
2021/05/15 09:39:34;;;;;;;1.22;1.10;;;;;;;41.98;30.31;162280.36;1649729;87;21357;-81
2021/05/15 09:42:09;;;;;;;4.47;1.10;;;;;;;42.02;30.23;162291.06;1649570;85;21267;-82
2021/05/15 09:44:45;;;;;;;4.67;0.98;;;;;;;42.04;30.12;162296.44;1637084;87;21759;-82
2021/05/15 09:47:26;;;;;;;2.50;0.68;;;;;;;41.95;30.12;162272.28;1638867;87;21891;-90
2021/05/15 09:49:58;;;;;;;1.45;0.70;;;;;;;42.07;30.21;162304.52;1650149;85;21348;-90
2021/05/15 09:52:33;;;;;;;1.20;0.80;;;;;;;42.18;30.38;162332.75;1649869;85;21262;-92
2021/05/15 09:55:11;;;;;;;8.98;1.20;;;;;;;42.21;30.36;162340.77;1650185;87;21255;-91
2021/05/15 09:57:43;;;;;;;2.60;1.05;;;;;;;42.36;30.20;162381.13;1648548;86;21864;-91
2021/05/15 10:00:16;;;;;;;1.20;1.00;;;;;;;42.44;29.96;162402.61;1657801;85;21710;-90
2021/05/15 10:02:55;;;;;;;1.07;0.88;;;;;;;42.54;29.65;162430.84;1647877;87;21886;-90
2021/05/15 10:05:27;;;;;;;1.10;0.90;;;;;;;42.59;29.09;162444.30;1647966;86;21354;-88
2021/05/15 10:08:08;;;;;;;1.92;0.82;;;;;;;42.43;29.06;162401.28;1655825;85;21178;-90
2021/05/15 10:10:41;;;;;;;3.17;0.83;;;;;;;42.41;28.98;162395.91;1658366;85;21675;-89
2021/05/15 10:13:13;;;;;;;1.82;0.70;;;;;;;42.38;28.87;162387.83;1658181;86;21229;-88
2021/05/15 10:15:46;;;;;;;2.58;0.82;;;;;;;42.30;28.82;162366.31;1658290;86;21245;-90
2021/05/15 10:18:19;;;;;;;1.42;0.98;;;;;;;42.24;28.88;162350.20;1650749;86;21235;-91
2021/05/15 10:20:51;;;;;;;12.00;2.22;;;;;;;42.20;28.83;162339.44;1649461;87;21209;-91
2021/05/15 10:23:25;;;;;;;6.17;2.27;;;;;;;42.11;28.91;162315.28;1649574;87;21779;-90
2021/05/15 10:26:07;;;;;;;4.25;1.02;;;;;;;42.15;29.00;162324.67;1649884;85;21754;-91
2021/05/15 10:28:40;;;;;;;1.52;0.90;;;;;;;42.01;29.12;162288.44;1638705;86;21394;-89
2021/05/15 10:31:17;;;;;;;2.25;0.80;;;;;;;41.84;29.43;162241.38;1639921;86;21882;-89
2021/05/15 10:33:50;;;;;;;1.72;0.80;;;;;;;42.10;29.15;162311.22;1631355;86;21420;-90
2021/05/15 10:36:25;;;;;;;2.65;0.80;;;;;;;42.11;29.04;162315.28;1610046;87;21225;-90
2021/05/15 10:38:58;;;;;;;1.10;1.00;;;;;;;42.11;29.06;162315.28;1647541;86;22362;-89
2021/05/15 10:41:30;;;;;;;1.67;0.98;;;;;;;42.04;29.15;162296.44;1609099;89;21189;-91
2021/05/15 10:44:13;;;;;;;1.52;1.00;;;;;;;42.07;29.13;162304.52;1647266;86;21440;-90
2021/05/15 10:46:47;;;;;;;1.40;1.30;;;;;;;42.06;29.21;162301.83;1647261;86;21421;-92
2021/05/15 10:49:24;;;;;;;1.20;1.00;;;;;;;42.05;29.29;162297.81;1658335;85;21373;-89
2021/05/15 10:52:09;;;;;;;2.95;1.00;;;;;;;42.06;29.35;162301.83;1658226;85;21808;-90
2021/05/15 10:54:44;;;;;;;1.55;1.10;;;;;;;42.02;29.43;162291.06;1655277;85;21232;-89
2021/05/15 10:57:22;;;;;;;0.93;0.93;;;;;;;41.90;29.66;162258.78;1649322;85;21280;-89
2021/05/15 11:00:00;;;;;;;0.90;0.90;;;;;;;41.96;29.75;162273.61;1660625;86;21213;-91
2021/05/15 11:02:39;;;;;;;1.15;1.00;;;;;;;41.95;29.80;162270.97;1648592;87;21237;-85
2021/05/15 11:05:44;;;;;;;1.80;1.10;;;;;;;41.98;29.80;162280.36;1648777;85;21245;-89
2021/05/15 11:08:26;;;;;;;1.77;1.15;;;;;;;41.94;29.87;162268.22;1661028;86;21225;-91
2021/05/15 11:11:03;;;;;;;1.50;1.40;;;;;;;41.89;29.99;162256.16;1622557;86;21318;-91
2021/05/15 11:13:50;;;;;;;1.57;1.47;;;;;;;42.07;29.96;162304.52;1614021;86;21387;-89
2021/05/15 11:16:33;;;;;;;2.87;1.50;;;;;;;42.31;29.81;162369.00;1640744;86;21443;-89
2021/05/15 11:19:11;;;;;;;2.65;1.70;;;;;;;42.22;29.89;162343.47;1623382;88;21344;-90
2021/05/15 11:21:43;;;;;;;3.25;1.40;;;;;;;42.15;30.05;162326.00;1631007;87;21333;-90
2021/05/15 11:24:15;;;;;;;2.47;1.72;;;;;;;42.20;30.08;162339.44;1636658;86;21404;-89
2021/05/15 11:26:51;;;;;;;2.05;1.40;;;;;;;42.26;30.12;162355.53;1631031;86;21202;-88
2021/05/15 11:29:34;;;;;;;4.35;1.47;;;;;;;42.31;30.13;162369.00;1632919;86;21417;-90
2021/05/15 11:32:10;;;;;;;2.83;1.45;;;;;;;42.35;29.99;162379.81;1644518;85;21363;-88
2021/05/15 11:34:43;;;;;;;2.10;1.00;;;;;;;42.27;29.86;162356.91;1641668;86;21915;-89
2021/05/15 11:37:15;;;;;;;2.77;1.32;;;;;;;42.18;29.86;162334.06;1639743;86;21356;-89
2021/05/15 11:39:55;;;;;;;1.45;0.80;;;;;;;42.12;29.75;162317.97;1636973;86;21234;-90
2021/05/15 11:42:32;;;;;;;0.88;0.80;;;;;;;41.85;29.70;162242.69;1631610;86;21440;-90
2021/05/15 11:45:06;;;;;;;1.80;0.82;;;;;;;41.79;29.78;162226.55;1631890;86;21329;-89
2021/05/15 11:47:40;;;;;;;1.57;0.90;;;;;;;41.76;29.83;162218.53;1631236;86;21218;-86
2021/05/15 11:50:17;;;;;;;4.83;1.00;;;;;;;41.68;29.87;162197.02;1631789;86;21468;-89
2021/05/15 11:52:51;;;;;;;1.82;0.90;;;;;;;41.65;29.77;162189.00;1632021;86;21206;-90